Time;durP1;ratioP1;P1;durP2;ratioP2;P2;SDS_P1;SDS_P2;PMS_P1;PMS_P2;Temp;Humidity;BMP_temperature;BMP_pressure;BME280_temperature;BME280_humidity;BME280_pressure;Samples;Min_cycle;Max_cycle;Signal;HPM_P1;HPM_P2
2022/06/26 00:01:54;;;;;;;24.23;21.30;;;;;;;;;;5080850;28;20490;-85
2022/06/26 00:04:20;;;;;;;26.40;21.52;;;;;;;;;;5097344;27;20115;-85
2022/06/26 00:06:46;;;;;;;24.90;20.85;;;;;;;;;;5116119;27;20090;-85
2022/06/26 00:09:13;;;;;;;22.35;18.92;;;18.20;99.90;;;;;;5095634;27;20031;-84
2022/06/26 00:11:39;;;;;;;25.42;17.67;;;;;;;;;;5126217;27;20122;-84
2022/06/26 00:14:05;;;;;;;25.02;19.75;;;;;;;;;;5130268;27;20047;-84
2022/06/26 00:16:31;;;;;;;27.70;23.45;;;;;;;;;;5101987;27;20447;-84
2022/06/26 00:18:57;;;;;;;30.75;23.35;;;;;;;;;;5135656;27;20521;-85
2022/06/26 00:21:23;;;;;;;28.33;23.38;;;18.10;99.90;;;;;;5120144;27;20104;-84
2022/06/26 00:23:49;;;;;;;33.10;24.58;;;;;;;;;;5119678;27;20054;-84
2022/06/26 00:26:15;;;;;;;24.80;20.63;;;;;;;;;;5112811;27;20503;-84
2022/06/26 00:28:41;;;;;;;21.20;19.05;;;;;;;;;;5126088;27;20132;-84
2022/06/26 00:31:07;;;;;;;21.45;18.00;;;;;;;;;;5117984;27;20046;-84
2022/06/26 00:33:33;;;;;;;20.80;18.58;;;;;;;;;;5105642;27;20043;-84
2022/06/26 00:35:59;;;;;;;21.00;18.83;;;;;;;;;;5112495;27;20468;-84
2022/06/26 00:38:25;;;;;;;22.60;20.20;;;;;;;;;;5117873;27;20054;-85
2022/06/26 00:40:51;;;;;;;18.75;16.35;;;;;;;;;;5111321;27;20501;-85
2022/06/26 00:43:17;;;;;;;18.55;16.65;;;;;;;;;;5110927;27;20501;-84
2022/06/26 00:45:43;;;;;;;19.80;16.95;;;;;;;;;;5114516;27;20043;-84
2022/06/26 00:48:09;;;;;;;18.88;17.00;;;;;;;;;;5106599;27;20122;-84
2022/06/26 00:50:36;;;;;;;18.33;16.35;;;;;;;;;;5109760;27;20047;-84
2022/06/26 00:53:02;;;;;;;17.40;15.65;;;;;;;;;;5128950;27;20030;-84
2022/06/26 00:55:28;;;;;;;26.95;19.55;;;;;;;;;;5111096;27;20038;-85
2022/06/26 00:57:55;;;;;;;19.83;15.15;;;;;;;;;;5112933;27;20046;-86
2022/06/26 01:00:21;;;;;;;24.92;15.88;;;;;;;;;;5118233;27;20504;-85
2022/06/26 01:02:47;;;;;;;19.70;16.63;;;;;;;;;;5154914;27;20030;-85
2022/06/26 01:05:13;;;;;;;28.00;18.58;;;;;;;;;;5136686;27;20068;-86
2022/06/26 01:07:40;;;;;;;23.65;17.23;;;17.70;99.90;;;;;;5104733;27;20040;-85
2022/06/26 01:10:06;;;;;;;22.92;16.92;;;;;;;;;;5151986;27;20126;-85
2022/06/26 01:12:33;;;;;;;19.55;16.33;;;;;;;;;;5108179;27;20188;-85
2022/06/26 01:14:59;;;;;;;22.45;17.10;;;;;;;;;;5124906;27;20075;-85
2022/06/26 01:17:25;;;;;;;19.50;15.40;;;;;;;;;;5125334;27;20130;-85
2022/06/26 01:19:52;;;;;;;21.77;15.57;;;;;;;;;;5149981;27;20038;-85
2022/06/26 01:22:18;;;;;;;19.17;16.42;;;;;;;;;;5118706;27;20047;-85
2022/06/26 01:24:44;;;;;;;19.55;15.27;;;;;;;;;;5134690;27;20094;-85
2022/06/26 01:27:10;;;;;;;19.67;14.57;;;;;;;;;;5110407;27;20125;-85
2022/06/26 01:29:36;;;;;;;22.38;16.38;;;;;;;;;;5109174;27;20501;-85
2022/06/26 01:32:02;;;;;;;16.42;13.48;;;;;;;;;;5133144;27;20046;-85
2022/06/26 01:34:28;;;;;;;15.52;12.77;;;;;;;;;;5125616;27;20074;-86
2022/06/26 01:36:55;;;;;;;18.98;13.95;;;;;;;;;;5118820;27;20031;-85
2022/06/26 01:39:21;;;;;;;18.65;13.93;;;;;;;;;;5096075;28;20083;-84
2022/06/26 01:41:47;;;;;;;18.98;12.98;;;17.80;99.90;;;;;;5129131;27;20557;-85
2022/06/26 01:44:14;;;;;;;19.48;12.65;;;;;;;;;;5109497;27;20039;-84
2022/06/26 01:46:40;;;;;;;20.42;12.55;;;;;;;;;;5116214;27;20058;-85
2022/06/26 01:49:06;;;;;;;20.10;12.13;;;;;;;;;;5123020;27;20035;-84
2022/06/26 01:51:32;;;;;;;19.42;13.07;;;;;;;;;;5125142;27;20043;-84
2022/06/26 01:53:58;;;;;;;17.08;12.43;;;;;;;;;;5113306;27;20051;-84
2022/06/26 01:56:25;;;;;;;18.92;12.10;;;;;;;;;;5095197;28;20138;-84
2022/06/26 01:58:51;;;;;;;17.33;11.60;;;;;;;;;;5106159;27;20039;-84
2022/06/26 02:01:18;;;;;;;22.13;12.77;;;;;;;;;;5104879;27;20480;-84
2022/06/26 02:03:44;;;;;;;17.85;11.43;;;;;;;;;;5112111;28;20036;-84
2022/06/26 02:06:10;;;;;;;18.35;12.95;;;;;;;;;;5111864;27;20079;-84
2022/06/26 02:08:36;;;;;;;19.25;12.30;;;;;;;;;;5112486;27;20044;-84
2022/06/26 02:13:49;;;;;;;13.75;10.88;;;;;;;;;;5125832;27;20615;-84
2022/06/26 02:16:20;;;;;;;16.13;10.85;;;17.70;99.90;;;;;;5096619;27;20039;-84
2022/06/26 02:18:48;;;;;;;15.95;11.07;;;17.80;99.90;;;;;;5099266;28;20061;-84
2022/06/26 02:21:17;;;;;;;15.70;10.98;;;17.60;99.90;;;;;;5099715;28;20043;-84
2022/06/26 02:23:44;;;;;;;14.55;10.00;;;17.90;99.90;;;;;;5106556;27;20159;-84
2022/06/26 02:26:10;;;;;;;16.67;10.13;;;;;;;;;;5125222;27;20051;-84
2022/06/26 02:28:39;;;;;;;24.38;10.32;;;17.60;99.90;;;;;;5110836;27;20403;-84
2022/06/26 02:31:05;;;;;;;13.57;10.00;;;17.90;99.90;;;;;;5105240;27;20096;-84
2022/06/26 02:33:32;;;;;;;14.02;9.98;;;;;;;;;;5103674;27;20038;-84
2022/06/26 02:35:59;;;;;;;14.20;8.98;;;17.90;99.90;;;;;;5129778;27;20444;-84
2022/06/26 02:38:25;;;;;;;19.65;10.60;;;;;;;;;;5105599;28;20047;-84
2022/06/26 02:40:52;;;;;;;17.35;11.70;;;17.80;99.90;;;;;;5109254;27;20046;-84
2022/06/26 02:43:19;;;;;;;15.82;9.15;;;17.70;99.90;;;;;;5106447;27;20062;-84
2022/06/26 02:45:46;;;;;;;13.73;10.07;;;17.70;99.90;;;;;;5105923;27;20039;-84
2022/06/26 02:48:12;;;;;;;13.63;9.70;;;;;;;;;;5120846;27;20046;-84
2022/06/26 02:50:38;;;;;;;19.52;10.93;;;;;;;;;;5086821;28;20039;-85
2022/06/26 02:53:05;;;;;;;16.58;10.13;;;17.70;99.90;;;;;;5118722;27;20048;-84
2022/06/26 02:55:31;;;;;;;18.42;8.75;;;17.80;99.90;;;;;;5095317;28;20043;-85
2022/06/26 02:57:57;;;;;;;12.52;7.07;;;;;;;;;;5112137;27;20032;-86
2022/06/26 03:00:23;;;;;;;9.95;8.07;;;;;;;;;;5090352;28;20036;-85
2022/06/26 03:02:50;;;;;;;10.13;7.20;;;;;;;;;;5108610;27;20111;-84
2022/06/26 03:05:16;;;;;;;11.25;7.30;;;;;;;;;;5112498;27;20138;-84
2022/06/26 03:07:42;;;;;;;9.10;6.95;;;;;;;;;;5113584;27;20309;-84
2022/06/26 03:10:08;;;;;;;10.60;6.53;;;;;;;;;;5093889;28;20389;-85
2022/06/26 03:12:34;;;;;;;7.93;5.85;;;;;;;;;;5102490;27;20086;-86
2022/06/26 03:15:02;;;;;;;11.23;7.43;;;;;;;;;;5095236;28;20055;-85
2022/06/26 03:17:28;;;;;;;8.90;6.47;;;;;;;;;;5102260;28;20048;-87
2022/06/26 03:19:54;;;;;;;9.50;6.65;;;;;;;;;;5108113;28;20029;-84
2022/06/26 03:22:20;;;;;;;10.52;6.38;;;;;;;;;;5124070;28;20058;-86
2022/06/26 03:24:46;;;;;;;10.85;6.03;;;;;;;;;;5104954;28;20065;-86
2022/06/26 03:27:12;;;;;;;10.52;6.40;;;;;;;;;;5116171;28;20483;-85
2022/06/26 03:29:38;;;;;;;7.57;6.50;;;;;;;;;;5099034;28;20046;-84
2022/06/26 03:32:04;;;;;;;10.55;6.68;;;;;;;;;;5128358;28;20426;-84
2022/06/26 03:34:30;;;;;;;8.38;6.28;;;;;;;;;;5127038;28;20047;-84
2022/06/26 03:36:56;;;;;;;7.93;6.18;;;;;;;;;;5112763;28;20036;-84
2022/06/26 03:39:23;;;;;;;9.45;5.68;;;;;;;;;;5107896;28;20064;-84
2022/06/26 03:42:00;;;;;;;6.65;5.30;;;;;;;;;;5087843;28;20044;-84
2022/06/26 03:44:26;;;;;;;6.93;5.47;;;;;;;;;;5095532;28;20123;-84
2022/06/26 03:46:52;;;;;;;7.18;5.07;;;;;;;;;;5127012;28;20047;-84
2022/06/26 03:49:18;;;;;;;6.05;5.00;;;;;;;;;;5097867;28;20032;-84
2022/06/26 03:51:44;;;;;;;8.30;5.22;;;;;;;;;;5122651;28;20118;-84
2022/06/26 03:54:10;;;;;;;8.25;4.35;;;;;;;;;;5118832;28;20082;-84
2022/06/26 03:56:37;;;;;;;6.30;4.72;;;;;;;;;;5095464;28;20040;-84
2022/06/26 03:59:03;;;;;;;5.50;4.95;;;;;;;;;;5107491;28;20448;-84
2022/06/26 04:01:29;;;;;;;5.13;4.30;;;;;;;;;;5110059;28;20407;-84
2022/06/26 04:03:55;;;;;;;5.40;4.80;;;;;;;;;;5128915;28;20035;-84
2022/06/26 04:06:21;;;;;;;5.50;4.70;;;;;;;;;;5122025;28;20048;-84
2022/06/26 04:08:47;;;;;;;10.88;5.22;;;;;;;;;;5102504;28;20035;-84
2022/06/26 04:11:14;;;;;;;7.10;4.38;;;;;;;;;;5117269;28;20043;-84
2022/06/26 04:13:40;;;;;;;6.85;4.43;;;;;;;;;;5109838;28;20043;-84
2022/06/26 04:16:06;;;;;;;10.50;4.47;;;;;;;;;;5106125;28;20043;-84
2022/06/26 04:18:32;;;;;;;5.28;4.25;;;;;;;;;;5111614;28;20133;-85
2022/06/26 04:20:58;;;;;;;5.22;4.55;;;;;;;;;;5101861;28;20180;-84
2022/06/26 04:23:24;;;;;;;9.75;4.85;;;;;;;;;;5097120;28;20050;-84
2022/06/26 04:25:50;;;;;;;4.97;3.88;;;;;;;;;;5107104;27;20053;-85
2022/06/26 04:28:16;;;;;;;6.35;4.75;;;;;;;;;;5133736;27;20114;-84
2022/06/26 04:30:43;;;;;;;5.93;4.30;;;;;;;;;;5108227;28;20046;-85
2022/06/26 04:33:09;;;;;;;8.48;4.20;;;;;;;;;;5099696;27;20024;-84
2022/06/26 04:35:35;;;;;;;6.53;4.57;;;;;;;;;;5098888;28;20071;-85
2022/06/26 04:38:02;;;;;;;9.35;4.10;;;;;;;;;;5112953;27;20092;-85
2022/06/26 04:40:28;;;;;;;5.45;4.40;;;;;;;;;;5131829;27;20103;-84
2022/06/26 04:42:55;;;;;;;6.80;4.32;;;;;;;;;;5122775;27;20043;-84
2022/06/26 04:45:21;;;;;;;7.00;4.40;;;;;;;;;;5105914;27;20042;-85
2022/06/26 04:47:47;;;;;;;5.45;4.38;;;;;;;;;;5101870;27;20130;-85
2022/06/26 04:50:13;;;;;;;8.70;4.53;;;;;;;;;;5132073;27;20050;-84
2022/06/26 04:52:44;;;;;;;9.10;4.18;;;17.30;99.90;;;;;;5137920;27;20062;-85
2022/06/26 04:55:10;;;;;;;5.45;4.60;;;;;;;;;;5147482;27;20038;-87
2022/06/26 04:57:36;;;;;;;5.72;4.68;;;;;;;;;;5118955;27;20383;-86
2022/06/26 05:00:03;;;;;;;6.95;4.72;;;;;;;;;;5126042;27;20034;-85
2022/06/26 05:02:29;;;;;;;10.20;4.78;;;;;;;;;;5128777;27;20164;-86
2022/06/26 05:04:55;;;;;;;5.53;4.93;;;;;;;;;;5142434;27;20176;-86
2022/06/26 05:07:21;;;;;;;5.65;4.72;;;;;;;;;;5097525;27;20043;-86
2022/06/26 05:09:48;;;;;;;8.15;5.18;;;;;;;;;;5134863;27;20069;-86
2022/06/26 05:12:14;;;;;;;6.88;6.18;;;;;;;;;;5145570;27;20490;-85
2022/06/26 05:14:40;;;;;;;8.75;6.22;;;;;;;;;;5140679;27;20391;-86
2022/06/26 05:17:06;;;;;;;6.35;5.25;;;;;;;;;;5138465;27;20039;-86
2022/06/26 05:19:32;;;;;;;10.85;6.22;;;;;;;;;;5127576;27;20483;-86
2022/06/26 05:21:58;;;;;;;8.20;6.80;;;;;;;;;;5127332;27;20509;-86
2022/06/26 05:24:24;;;;;;;7.50;6.68;;;;;;;;;;5143479;27;20088;-86
2022/06/26 05:26:50;;;;;;;7.40;6.55;;;;;;;;;;5128762;27;20475;-86
2022/06/26 05:29:16;;;;;;;10.32;7.40;;;;;;;;;;5112625;27;20039;-86
2022/06/26 05:31:42;;;;;;;10.25;7.25;;;;;;;;;;5125386;27;20129;-86
2022/06/26 05:34:08;;;;;;;13.32;8.13;;;;;;;;;;5138057;27;20493;-86
2022/06/26 05:36:34;;;;;;;7.60;6.90;;;;;;;;;;5145737;27;20031;-85
2022/06/26 05:39:00;;;;;;;13.70;8.95;;;;;;;;;;5134793;27;20133;-85
2022/06/26 05:41:26;;;;;;;11.55;9.35;;;;;;;;;;5120593;27;20047;-84
2022/06/26 05:43:58;;;;;;;13.40;9.57;;;;;;;;;;5124409;27;20106;-84
2022/06/26 05:46:25;;;;;;;12.65;9.98;;;;;;;;;;5111734;27;20034;-84
2022/06/26 05:48:51;;;;;;;11.77;8.93;;;;;;;;;;5150983;27;20102;-85
2022/06/26 05:51:17;;;;;;;13.10;9.55;;;;;;;;;;5134287;27;20122;-84
2022/06/26 05:53:43;;;;;;;12.00;9.18;;;;;;;;;;5130287;27;20067;-84
2022/06/26 05:56:09;;;;;;;9.65;8.20;;;;;;;;;;5107803;27;20043;-85
2022/06/26 05:58:35;;;;;;;12.75;8.95;;;;;;;;;;5122116;27;20592;-85
2022/06/26 06:01:01;;;;;;;10.13;9.02;;;;;;;;;;5114747;27;20066;-85
2022/06/26 06:03:27;;;;;;;10.35;9.20;;;;;;;;;;5133517;27;20452;-84
2022/06/26 06:05:53;;;;;;;12.18;9.35;;;;;;;;;;5116492;27;20043;-85
2022/06/26 06:08:19;;;;;;;17.92;12.00;;;;;;;;;;5150915;27;20502;-85
2022/06/26 06:10:45;;;;;;;12.23;10.85;;;;;;;;;;5128457;27;20491;-85
2022/06/26 06:13:11;;;;;;;16.02;11.27;;;;;;;;;;5099072;27;20480;-85
2022/06/26 06:15:37;;;;;;;13.18;11.63;;;;;;;;;;5098261;27;20168;-85
2022/06/26 06:18:03;;;;;;;15.25;13.10;;;;;;;;;;5112169;28;20436;-85
2022/06/26 06:20:29;;;;;;;12.98;10.95;;;;;;;;;;5132254;27;20107;-85
2022/06/26 06:23:03;;;;;;;15.07;12.32;;;18.20;99.90;;;;;;5114298;27;20131;-85
2022/06/26 06:25:30;;;;;;;13.48;11.38;;;;;;;;;;5098124;27;20461;-85
2022/06/26 06:27:56;;;;;;;15.73;12.27;;;;;;;;;;5100618;27;20035;-85
2022/06/26 06:30:37;;;;;;;14.30;11.68;;;18.10;99.90;;;;;;5096217;27;20073;-85
2022/06/26 06:33:08;;;;;;;14.95;10.80;;;18.20;99.90;;;;;;5127689;27;20498;-84
2022/06/26 06:35:35;;;;;;;12.63;11.32;;;;;;;;;;5151906;27;20471;-84
2022/06/26 06:38:02;;;;;;;13.82;11.38;;;;;;;;;;5127422;27;20075;-84
2022/06/26 06:40:29;;;;;;;12.50;10.93;;;;;;;;;;5132764;27;20554;-85
2022/06/26 06:42:55;;;;;;;13.15;11.23;;;;;;;;;;5133154;27;20117;-84
2022/06/26 06:45:21;;;;;;;12.15;10.93;;;;;;;;;;5114885;27;20392;-83
2022/06/26 06:47:47;;;;;;;14.25;11.60;;;;;;;;;;5131251;27;20031;-84
2022/06/26 06:50:16;;;;;;;13.88;11.77;;;;;;;;;;5115579;27;20035;-84
2022/06/26 06:52:42;;;;;;;17.35;13.48;;;;;;;;;;5098768;27;20066;-84
2022/06/26 06:55:08;;;;;;;15.55;13.65;;;;;;;;;;5098584;27;20043;-84
2022/06/26 06:57:34;;;;;;;19.70;15.63;;;;;;;;;;5097398;27;20039;-84
2022/06/26 07:00:04;;;;;;;20.20;15.68;;;18.10;99.90;;;;;;5095651;27;20484;-85
2022/06/26 07:02:31;;;;;;;18.83;15.57;;;;;;;;;;5107841;27;20035;-84
2022/06/26 07:04:57;;;;;;;19.27;16.20;;;;;;;;;;5121207;27;20057;-85
2022/06/26 07:07:24;;;;;;;21.20;16.35;;;;;;;;;;5117118;27;20041;-84
2022/06/26 07:09:50;;;;;;;19.25;16.38;;;;;;;;;;5123029;27;20035;-85
2022/06/26 07:12:16;;;;;;;22.45;17.67;;;;;;;;;;5097294;27;20047;-85
2022/06/26 07:14:44;;;;;;;23.05;18.65;;;;;;;;;;5114200;27;20042;-84
2022/06/26 07:17:10;;;;;;;25.25;19.15;;;;;;;;;;5098341;27;20094;-85
2022/06/26 07:19:39;;;;;;;23.23;18.08;;;;;;;;;;5097125;27;20039;-85
2022/06/26 07:22:05;;;;;;;17.67;13.80;;;;;;;;;;5092706;28;20105;-85
2022/06/26 07:24:34;;;;;;;22.52;15.68;;;18.30;99.90;;;;;;5115170;27;20058;-85
2022/06/26 07:27:00;;;;;;;21.15;14.90;;;;;;;;;;5097198;28;20123;-84
2022/06/26 07:29:26;;;;;;;19.13;14.98;;;;;;;;;;5113974;28;20043;-85
2022/06/26 07:31:55;;;;;;;23.20;15.57;;;18.30;99.90;;;;;;5113889;27;20130;-89
2022/06/26 07:34:23;;;;;;;20.77;15.70;;;;;;;;;;5114080;28;20043;-87
2022/06/26 07:36:50;;;;;;;18.58;15.45;;;18.40;99.90;;;;;;5097136;27;20128;-87
2022/06/26 07:39:19;;;;;;;19.67;15.38;;;18.30;99.90;;;;;;5097653;28;20135;-87
2022/06/26 07:41:46;;;;;;;21.75;18.10;;;18.40;99.90;;;;;;5091564;27;20438;-86
2022/06/26 07:44:25;;;;;;;21.52;16.70;;;;;;;;;;5096577;28;20035;-87
2022/06/26 07:46:57;;;;;;;20.65;17.15;;;;;;;;;;5098672;27;20558;-86
2022/06/26 07:49:23;;;;;;;18.25;15.23;;;;;;;;;;5145498;27;20410;-85
2022/06/26 07:51:50;;;;;;;15.68;13.80;;;;;;;;;;5111490;28;20664;-85
2022/06/26 07:54:16;;;;;;;14.55;11.27;;;;;;;;;;5150570;27;20125;-85
2022/06/26 07:56:42;;;;;;;12.00;10.70;;;;;;;;;;5153585;27;20050;-84
2022/06/26 07:59:08;;;;;;;12.95;9.88;;;;;;;;;;5119499;27;20034;-85
2022/06/26 08:01:34;;;;;;;17.00;9.88;;;;;;;;;;5109582;27;20043;-85
2022/06/26 08:04:01;;;;;;;6.43;5.70;;;;;;;;;;5116909;27;20054;-85
2022/06/26 08:06:27;;;;;;;10.70;7.35;;;;;;;;;;5118742;27;20049;-84
2022/06/26 08:08:53;;;;;;;10.63;7.70;;;;;;;;;;5124124;27;20031;-84
2022/06/26 08:11:20;;;;;;;7.22;6.45;;;;;;;;;;5110988;27;20054;-84
2022/06/26 08:13:46;;;;;;;8.63;7.65;;;;;;;;;;5116399;27;20036;-85
2022/06/26 08:16:12;;;;;;;10.25;7.28;;;;;;;;;;5113740;27;20046;-84
2022/06/26 08:18:38;;;;;;;8.82;6.25;;;;;;;;;;5118629;27;20124;-86
2022/06/26 08:23:49;;;;;;;11.32;6.90;;;;;;;;;;5117209;27;20042;-85
2022/06/26 08:26:15;;;;;;;8.32;6.07;;;;;;;;;;5101473;27;20096;-85
2022/06/26 08:28:41;;;;;;;8.60;6.38;;;;;;;;;;5117207;27;20043;-85
2022/06/26 08:31:07;;;;;;;7.78;4.78;;;;;;;;;;5099288;27;20411;-85
2022/06/26 08:33:33;;;;;;;5.45;4.05;;;;;;;;;;5096011;27;20040;-84
2022/06/26 08:35:59;;;;;;;5.50;4.95;;;;;;;;;;5130752;27;20402;-84
2022/06/26 08:38:25;;;;;;;6.25;4.40;;;;;;;;;;5120061;27;20078;-84
2022/06/26 08:40:51;;;;;;;5.50;5.00;;;;;;;;;;5118404;27;20133;-84
2022/06/26 08:43:21;;;;;;;8.05;5.53;;;19.60;99.90;;;;;;5099581;27;20039;-85
2022/06/26 08:45:53;;;;;;;7.18;5.13;;;19.70;99.90;;;;;;5100958;27;20111;-84
2022/06/26 08:48:20;;;;;;;8.05;5.82;;;19.70;99.90;;;;;;5099859;27;20131;-84
2022/06/26 08:50:46;;;;;;;7.97;5.32;;;;;;;;;;5134703;27;20049;-84
2022/06/26 08:53:15;;;;;;;7.35;4.50;;;19.90;99.90;;;;;;5113661;27;20037;-84
2022/06/26 08:55:44;;;;;;;3.55;3.22;;;19.80;99.90;;;;;;5119361;27;20133;-84
2022/06/26 08:58:10;;;;;;;2.78;2.50;;;;;;;;;;5137169;27;20553;-84
2022/06/26 09:00:37;;;;;;;5.90;3.85;;;;;;;;;;5104178;27;20054;-85
2022/06/26 09:03:03;;;;;;;4.72;3.75;;;;;;;;;;5117000;27;20035;-85
2022/06/26 09:05:29;;;;;;;5.55;3.80;;;19.90;99.90;;;;;;5096026;27;20130;-84
2022/06/26 09:07:58;;;;;;;4.13;3.67;;;;;;;;;;5136490;27;20074;-85
2022/06/26 09:10:27;;;;;;;5.65;4.53;;;19.70;99.90;;;;;;5139726;27;20042;-88
2022/06/26 09:12:55;;;;;;;7.38;4.68;;;20.20;99.90;;;;;;5136965;27;20118;-86
2022/06/26 09:15:22;;;;;;;7.07;5.32;;;20.10;99.90;;;;;;5132260;27;20058;-86
2022/06/26 09:17:57;;;;;;;2.83;2.08;;;20.40;99.90;;;;;;5114329;27;20116;-87
2022/06/26 09:20:23;;;;;;;3.15;2.67;;;;;;;;;;5135365;27;20051;-86
2022/06/26 09:22:57;;;;;;;2.25;1.92;;;20.30;99.90;;;;;;5093640;27;20039;-86
2022/06/26 09:25:33;;;;;;;;;;;20.30;99.90;;;;;;5117291;27;20051;-84
2022/06/26 09:28:05;;;;;;;3.22;1.80;;;20.30;99.90;;;;;;5122947;27;19927;-84
2022/06/26 09:30:31;;;;;;;4.10;2.40;;;;;;;;;;5134026;27;20042;-86
2022/06/26 09:32:57;;;;;;;4.88;2.78;;;;;;;;;;5137217;27;20085;-85
2022/06/26 09:35:26;;;;;;;2.88;2.55;;;20.50;99.90;;;;;;5136048;27;20479;-89
2022/06/26 09:37:52;;;;;;;3.47;2.30;;;20.80;99.90;;;;;;5098694;27;20047;-89
2022/06/26 09:40:18;;;;;;;5.47;2.78;;;;;;;;;;5113917;27;20066;-86
2022/06/26 09:42:45;;;;;;;5.22;2.72;;;;;;;;;;5130812;27;20470;-86
2022/06/26 09:45:11;;;;;;;4.40;3.72;;;20.90;99.90;;;;;;5114813;27;20043;-87
2022/06/26 09:47:39;;;;;;;4.95;3.28;;;20.90;99.90;;;;;;5135705;27;20117;-89
2022/06/26 09:50:07;;;;;;;3.17;2.80;;;21.30;99.90;;;;;;5112123;28;20027;-86
2022/06/26 09:52:33;;;;;;;3.55;2.70;;;21.30;99.90;;;;;;5111797;27;20035;-84
2022/06/26 09:55:00;;;;;;;3.08;2.75;;;21.20;99.90;;;;;;5126323;27;20518;-86
2022/06/26 09:57:27;;;;;;;4.35;2.42;;;21.40;99.90;;;;;;5099561;27;20045;-91
2022/06/26 09:59:55;;;;;;;4.80;2.85;;;21.20;99.90;;;;;;5108741;27;20043;-87
2022/06/26 10:07:58;;;;;;;2.47;2.00;;;21.20;99.90;;;;;;5139072;27;20047;-85
2022/06/26 10:10:25;;;;;;;2.38;2.17;;;;;;;;;;5118988;27;20039;-85
2022/06/26 10:13:00;;;;;;;3.78;2.50;;;21.50;99.90;;;;;;5131783;27;20053;-84
2022/06/26 10:15:29;;;;;;;4.35;2.13;;;21.40;99.90;;;;;;5125630;27;20071;-84
2022/06/26 10:18:13;;;;;;;4.20;2.97;;;21.60;99.90;;;;;;5141589;27;20046;-84
2022/06/26 10:20:41;;;;;;;3.58;2.97;;;21.70;99.90;;;;;;5121729;27;20039;-83
2022/06/26 10:23:07;;;;;;;2.47;2.15;;;;;;;;;;5151477;27;20027;-84
2022/06/26 10:25:33;;;;;;;4.45;2.50;;;21.80;99.90;;;;;;5140569;27;20447;-84
2022/06/26 10:28:02;;;;;;;4.93;2.10;;;21.50;99.90;;;;;;5130316;27;20043;-84
2022/06/26 10:30:30;;;;;;;3.50;2.53;;;21.70;99.90;;;;;;5131828;27;20474;-84
2022/06/26 10:33:18;;;;;;;2.40;2.20;;;22.00;99.90;;;;;;5138162;27;20551;-84
2022/06/26 10:35:49;;;;;;;4.03;2.92;;;21.60;99.90;;;;;;5112368;27;20053;-83
2022/06/26 10:38:26;;;;;;;4.35;2.58;;;21.40;99.90;;;;;;5113453;27;20046;-84
2022/06/26 10:44:02;;;;;;;3.17;2.65;;;21.60;99.90;;;;;;5133653;27;20119;-84
2022/06/26 10:46:35;;;;;;;5.70;3.43;;;21.50;99.90;;;;;;5133242;27;20394;-83
2022/06/26 10:49:07;;;;;;;2.67;2.30;;;21.50;99.90;;;;;;5117993;27;20783;-83
2022/06/26 10:51:33;;;;;;;7.40;2.90;;;;;;;;;;5118664;27;20051;-84
2022/06/26 10:54:02;;;;;;;9.80;3.33;;;21.60;99.90;;;;;;5109154;27;20035;-84
2022/06/26 10:56:28;;;;;;;3.00;2.67;;;;;;;;;;5123730;27;20054;-84
2022/06/26 10:59:02;;;;;;;3.38;3.00;;;21.60;99.90;;;;;;5100827;27;20074;-83
2022/06/26 11:01:28;;;;;;;4.68;2.72;;;21.50;99.90;;;;;;5134327;27;20069;-84
2022/06/26 11:03:54;;;;;;;7.03;3.63;;;21.80;99.90;;;;;;5143855;27;20517;-84
2022/06/26 11:06:24;;;;;;;3.78;2.70;;;22.10;99.90;;;;;;5132341;27;20070;-84
2022/06/26 11:08:52;;;;;;;3.60;3.03;;;22.10;99.90;;;;;;5115863;27;20042;-84
2022/06/26 11:11:22;;;;;;;4.20;3.22;;;22.10;99.90;;;;;;5107934;27;20039;-85
2022/06/26 11:13:51;;;;;;;3.28;2.67;;;22.00;99.90;;;;;;5101907;27;20039;-83
2022/06/26 11:16:17;;;;;;;5.75;3.17;;;22.00;99.90;;;;;;5118182;27;20055;-85
2022/06/26 11:18:43;;;;;;;3.05;2.75;;;22.20;99.90;;;;;;5104896;27;20432;-84
2022/06/26 11:21:09;;;;;;;6.43;3.08;;;22.30;99.90;;;;;;5133146;27;20087;-84
2022/06/26 11:23:36;;;;;;;3.88;2.88;;;22.20;99.90;;;;;;5130900;27;20526;-84
2022/06/26 11:26:03;;;;;;;5.00;3.22;;;22.00;99.90;;;;;;5140537;27;20031;-84
2022/06/26 11:28:40;;;;;;;4.10;2.88;;;22.40;99.90;;;;;;5116805;27;20050;-84
2022/06/26 11:31:08;;;;;;;2.38;2.17;;;22.30;99.90;;;;;;5111145;27;20035;-84
2022/06/26 11:33:35;;;;;;;3.90;2.83;;;22.40;99.90;;;;;;5121479;27;20534;-84
2022/06/26 11:36:05;;;;;;;5.15;3.15;;;22.30;99.90;;;;;;5110998;27;20032;-84
2022/06/26 11:38:32;;;;;;;3.58;3.13;;;22.70;99.90;;;;;;5120836;27;20058;-83
2022/06/26 11:41:00;;;;;;;4.88;3.13;;;22.50;99.90;;;;;;5115716;27;20051;-85
2022/06/26 11:43:27;;;;;;;4.60;2.72;;;22.60;99.90;;;;;;5109464;27;20039;-84
2022/06/26 11:45:53;;;;;;;9.48;3.15;;;22.30;99.90;;;;;;5117020;27;20509;-84
2022/06/26 11:48:19;;;;;;;3.35;2.75;;;22.50;99.90;;;;;;5104018;27;20046;-84
2022/06/26 11:50:55;;;;;;;4.03;3.10;;;22.60;99.90;;;;;;5114245;27;20038;-84
2022/06/26 11:53:29;;;;;;;4.18;2.70;;;22.70;99.90;;;;;;5117613;27;20569;-88
2022/06/26 11:55:58;;;;;;;3.30;3.00;;;22.60;99.90;;;;;;5125043;27;20042;-84
2022/06/26 11:58:26;;;;;;;4.57;3.05;;;22.70;99.90;;;;;;5101504;27;20513;-84
2022/06/26 12:01:08;;;;;;;4.35;3.25;;;22.70;99.90;;;;;;5117418;27;20038;-85
2022/06/26 12:03:46;;;;;;;5.15;3.25;;;22.70;99.90;;;;;;5108125;27;20038;-85
2022/06/26 12:06:13;;;;;;;5.57;3.08;;;23.00;99.90;;;;;;5118410;27;20091;-85
2022/06/26 12:08:39;;;;;;;7.50;2.83;;;;;;;;;;5101315;27;20047;-84
2022/06/26 12:11:05;;;;;;;3.33;2.55;;;22.80;99.90;;;;;;5094572;28;20395;-84
2022/06/26 12:13:32;;;;;;;8.85;3.25;;;22.90;99.90;;;;;;5093549;27;20039;-86
2022/06/26 12:16:06;;;;;;;5.35;2.80;;;23.10;99.90;;;;;;5098296;27;20042;-84
2022/06/26 12:18:39;;;;;;;4.53;2.28;;;23.00;99.90;;;;;;5118271;27;20038;-85
2022/06/26 12:21:15;;;;;;;5.03;2.20;;;22.80;99.90;;;;;;5129578;27;20050;-85
2022/06/26 12:23:44;;;;;;;5.18;2.30;;;23.10;99.90;;;;;;5129790;27;20047;-85
2022/06/26 12:26:12;;;;;;;5.68;2.47;;;23.10;99.90;;;;;;5126672;27;20089;-85
2022/06/26 12:28:49;;;;;;;3.53;1.98;;;23.10;99.90;;;;;;5116376;27;20042;-85
2022/06/26 12:31:17;;;;;;;5.28;2.50;;;23.10;99.90;;;;;;5136831;27;20041;-85
2022/06/26 12:33:44;;;;;;;2.17;1.90;;;23.00;99.90;;;;;;5107249;27;20521;-85
2022/06/26 12:36:09;;;;;;;3.45;1.73;;;22.90;99.90;;;;;;5135376;27;20039;-85
2022/06/26 12:38:37;;;;;;;4.22;2.00;;;23.10;99.90;;;;;;5106358;27;20057;-84
2022/06/26 12:41:04;;;;;;;4.90;2.47;;;22.80;99.90;;;;;;5116486;27;20087;-84
2022/06/26 12:43:30;;;;;;;5.68;2.38;;;23.10;99.90;;;;;;5124152;27;20083;-84
2022/06/26 12:45:56;;;;;;;2.85;2.05;;;23.20;99.90;;;;;;5117016;27;20070;-84
2022/06/26 12:48:21;;;;;;;3.70;2.30;;;23.10;99.90;;;;;;5152147;27;20037;-84
2022/06/26 12:50:47;;;;;;;3.97;2.30;;;23.00;99.90;;;;;;5136637;27;20042;-84
2022/06/26 12:53:13;;;;;;;4.15;2.38;;;23.00;99.90;;;;;;5142923;27;20046;-84
2022/06/26 12:55:39;;;;;;;2.88;2.65;;;23.10;99.90;;;;;;5117643;27;20055;-84
2022/06/26 12:58:04;;;;;;;3.58;2.80;;;23.10;99.90;;;;;;5124019;27;20047;-84
2022/06/26 13:00:30;;;;;;;4.10;2.45;;;23.20;99.90;;;;;;5132889;27;20054;-84
2022/06/26 13:02:56;;;;;;;5.05;2.55;;;23.10;99.90;;;;;;5119231;27;20031;-85
2022/06/26 13:05:22;;;;;;;2.88;2.63;;;23.00;99.90;;;;;;5104529;27;20047;-84
2022/06/26 13:07:48;;;;;;;5.30;4.07;;;;;;;;;;5135094;27;20125;-84
2022/06/26 13:10:14;;;;;;;4.53;3.97;;;22.90;99.90;;;;;;5103842;27;20042;-84
2022/06/26 13:12:39;;;;;;;5.20;3.25;;;22.80;99.90;;;;;;5120224;27;20047;-86
2022/06/26 13:15:06;;;;;;;5.05;4.15;;;23.00;99.90;;;;;;5123978;27;20043;-84
2022/06/26 13:17:31;;;;;;;6.55;3.67;;;22.90;99.90;;;;;;5111377;27;20101;-84
2022/06/26 13:19:57;;;;;;;7.10;3.55;;;22.90;99.90;;;;;;5110026;27;20043;-85
2022/06/26 13:22:23;;;;;;;5.03;3.58;;;;;;;;;;5127619;27;20315;-84
2022/06/26 13:24:49;;;;;;;5.55;3.38;;;22.90;99.90;;;;;;5105589;27;20039;-85
2022/06/26 13:27:15;;;;;;;7.40;4.40;;;22.60;99.90;;;;;;5115869;27;20035;-84
2022/06/26 13:29:41;;;;;;;4.82;4.07;;;;;;;;;;5118935;27;20039;-84
2022/06/26 13:32:08;;;;;;;7.85;4.68;;;22.60;99.90;;;;;;5105357;27;20139;-85
2022/06/26 13:34:34;;;;;;;5.13;4.63;;;22.70;99.90;;;;;;5133179;27;20050;-85
2022/06/26 13:36:59;;;;;;;8.65;5.22;;;22.30;99.90;;;;;;5114266;27;20503;-84
2022/06/26 13:39:25;;;;;;;6.75;4.25;;;22.60;99.90;;;;;;5113425;27;20046;-84
2022/06/26 13:41:51;;;;;;;10.07;5.28;;;22.60;99.90;;;;;;5115805;27;20051;-85
2022/06/26 13:44:16;;;;;;;7.32;4.22;;;22.50;99.90;;;;;;5104746;27;20114;-84
2022/06/26 13:46:42;;;;;;;4.70;4.18;;;22.40;99.90;;;;;;5102834;27;20039;-84
2022/06/26 13:49:08;;;;;;;11.77;5.60;;;22.40;99.90;;;;;;5114772;27;20359;-84
2022/06/26 13:51:35;;;;;;;7.65;4.75;;;22.40;99.90;;;;;;5124283;27;20082;-85
2022/06/26 13:54:01;;;;;;;5.65;4.13;;;22.30;99.90;;;;;;5112767;27;20043;-84
2022/06/26 13:56:26;;;;;;;8.30;4.40;;;22.40;99.90;;;;;;5121941;27;20047;-84
2022/06/26 13:58:52;;;;;;;3.50;3.20;;;22.40;99.90;;;;;;5099572;27;20043;-84